sensor_id;sensor_type;location;lat;lon;timestamp;pressure;altitude;pressure_sealevel;temperature;humidity
20009;BME280;10165;42.662;23.260;2023-06-14T00:02:16;93858.25;;;20.19;79.15
20009;BME280;10165;42.662;23.260;2023-06-14T00:04:43;93858.78;;;20.11;79.86
20009;BME280;10165;42.662;23.260;2023-06-14T00:07:10;93850.25;;;20.12;79.61
20009;BME280;10165;42.662;23.260;2023-06-14T00:09:39;93844.44;;;20.10;80.04
20009;BME280;10165;42.662;23.260;2023-06-14T00:12:06;93845.88;;;19.91;80.94
20009;BME280;10165;42.662;23.260;2023-06-14T00:14:35;93845.84;;;19.95;81.35
20009;BME280;10165;42.662;23.260;2023-06-14T00:17:02;93847.09;;;19.87;81.66
20009;BME280;10165;42.662;23.260;2023-06-14T00:19:30;93842.47;;;19.87;81.39
20009;BME280;10165;42.662;23.260;2023-06-14T00:22:00;93842.13;;;19.55;83.20
20009;BME280;10165;42.662;23.260;2023-06-14T00:24:28;93845.91;;;19.61;82.06
20009;BME280;10165;42.662;23.260;2023-06-14T00:26:55;93847.66;;;19.75;81.68
20009;BME280;10165;42.662;23.260;2023-06-14T00:29:21;93843.34;;;19.81;81.02
20009;BME280;10165;42.662;23.260;2023-06-14T00:31:48;93835.19;;;19.81;80.63
20009;BME280;10165;42.662;23.260;2023-06-14T00:34:15;93839.91;;;19.77;81.17
20009;BME280;10165;42.662;23.260;2023-06-14T00:36:41;93833.00;;;19.72;81.36
20009;BME280;10165;42.662;23.260;2023-06-14T00:39:08;93842.50;;;19.84;82.13
20009;BME280;10165;42.662;23.260;2023-06-14T00:41:36;93832.81;;;20.10;79.51
20009;BME280;10165;42.662;23.260;2023-06-14T00:44:03;93821.03;;;19.96;80.51
20009;BME280;10165;42.662;23.260;2023-06-14T00:46:29;93824.66;;;19.86;81.20
20009;BME280;10165;42.662;23.260;2023-06-14T00:48:58;93824.69;;;19.83;81.53
20009;BME280;10165;42.662;23.260;2023-06-14T00:51:27;93823.25;;;20.01;81.25
20009;BME280;10165;42.662;23.260;2023-06-14T00:53:54;93826.88;;;20.45;79.11
20009;BME280;10165;42.662;23.260;2023-06-14T00:56:21;93825.88;;;19.82;80.72
20009;BME280;10165;42.662;23.260;2023-06-14T00:58:50;93826.94;;;19.61;82.67
20009;BME280;10165;42.662;23.260;2023-06-14T01:01:17;93821.84;;;19.67;82.82
20009;BME280;10165;42.662;23.260;2023-06-14T01:03:44;93821.53;;;19.61;82.47
20009;BME280;10165;42.662;23.260;2023-06-14T01:06:18;93830.13;;;19.56;83.07
20009;BME280;10165;42.662;23.260;2023-06-14T01:12:09;93822.25;;;19.35;84.61
20009;BME280;10165;42.662;23.260;2023-06-14T01:14:41;93822.53;;;19.40;84.44
20009;BME280;10165;42.662;23.260;2023-06-14T01:17:08;93829.94;;;19.36;85.27
20009;BME280;10165;42.662;23.260;2023-06-14T01:19:43;93821.34;;;19.45;85.33
20009;BME280;10165;42.662;23.260;2023-06-14T01:22:12;93819.69;;;19.54;84.61
20009;BME280;10165;42.662;23.260;2023-06-14T01:24:38;93826.19;;;19.61;84.32
20009;BME280;10165;42.662;23.260;2023-06-14T01:27:06;93818.31;;;19.39;85.50
20009;BME280;10165;42.662;23.260;2023-06-14T01:29:33;93819.31;;;19.52;85.02
20009;BME280;10165;42.662;23.260;2023-06-14T01:32:03;93819.94;;;19.64;84.44
20009;BME280;10165;42.662;23.260;2023-06-14T01:34:30;93822.59;;;19.67;84.37
20009;BME280;10165;42.662;23.260;2023-06-14T01:37:00;93813.88;;;19.83;83.28
20009;BME280;10165;42.662;23.260;2023-06-14T01:39:28;93815.66;;;19.93;82.64
20009;BME280;10165;42.662;23.260;2023-06-14T01:41:55;93813.34;;;19.91;82.89
20009;BME280;10165;42.662;23.260;2023-06-14T01:44:22;93819.13;;;19.93;82.38
20009;BME280;10165;42.662;23.260;2023-06-14T01:46:49;93820.72;;;19.91;82.92
20009;BME280;10165;42.662;23.260;2023-06-14T01:49:16;93819.06;;;19.97;82.64
20009;BME280;10165;42.662;23.260;2023-06-14T01:51:43;93823.56;;;20.07;82.44
20009;BME280;10165;42.662;23.260;2023-06-14T01:54:10;93821.06;;;20.20;81.35
20009;BME280;10165;42.662;23.260;2023-06-14T01:56:36;93821.38;;;19.98;82.19
20009;BME280;10165;42.662;23.260;2023-06-14T01:59:03;93832.78;;;19.86;82.47
20009;BME280;10165;42.662;23.260;2023-06-14T02:01:30;93829.22;;;19.93;83.04
20009;BME280;10165;42.662;23.260;2023-06-14T02:03:57;93837.97;;;19.77;81.63
20009;BME280;10165;42.662;23.260;2023-06-14T02:06:24;93833.56;;;19.87;81.18
20009;BME280;10165;42.662;23.260;2023-06-14T02:08:50;93836.16;;;19.94;80.86
20009;BME280;10165;42.662;23.260;2023-06-14T02:11:17;93840.91;;;19.60;81.08
20009;BME280;10165;42.662;23.260;2023-06-14T02:13:44;93847.03;;;19.64;81.18
20009;BME280;10165;42.662;23.260;2023-06-14T02:16:11;93852.97;;;19.82;80.84
20009;BME280;10165;42.662;23.260;2023-06-14T02:18:38;93850.41;;;19.07;83.64
20009;BME280;10165;42.662;23.260;2023-06-14T02:21:04;93853.38;;;19.20;83.42
20009;BME280;10165;42.662;23.260;2023-06-14T02:23:31;93856.31;;;18.98;84.89
20009;BME280;10165;42.662;23.260;2023-06-14T02:26:01;93858.13;;;19.12;84.45
20009;BME280;10165;42.662;23.260;2023-06-14T02:28:29;93857.41;;;19.38;83.31
20009;BME280;10165;42.662;23.260;2023-06-14T02:30:56;93864.03;;;19.34;82.77
20009;BME280;10165;42.662;23.260;2023-06-14T02:33:23;93860.25;;;19.28;82.35
20009;BME280;10165;42.662;23.260;2023-06-14T02:35:49;93858.16;;;19.05;83.61
20009;BME280;10165;42.662;23.260;2023-06-14T02:38:17;93861.59;;;19.46;82.48
20009;BME280;10165;42.662;23.260;2023-06-14T02:40:43;93860.09;;;19.42;82.90
20009;BME280;10165;42.662;23.260;2023-06-14T02:43:10;93854.09;;;19.58;82.27
20009;BME280;10165;42.662;23.260;2023-06-14T02:45:37;93851.09;;;19.48;82.48
20009;BME280;10165;42.662;23.260;2023-06-14T02:48:04;93853.28;;;19.27;81.67
20009;BME280;10165;42.662;23.260;2023-06-14T02:50:31;93856.41;;;19.25;82.24
20009;BME280;10165;42.662;23.260;2023-06-14T02:52:58;93857.50;;;19.31;83.21
20009;BME280;10165;42.662;23.260;2023-06-14T02:55:25;93844.75;;;19.62;82.25
20009;BME280;10165;42.662;23.260;2023-06-14T02:57:52;93850.91;;;19.66;80.28
20009;BME280;10165;42.662;23.260;2023-06-14T03:00:20;93849.69;;;19.67;80.23
20009;BME280;10165;42.662;23.260;2023-06-14T03:02:47;93848.53;;;19.95;79.32
20009;BME280;10165;42.662;23.260;2023-06-14T03:05:14;93857.94;;;19.87;79.22
20009;BME280;10165;42.662;23.260;2023-06-14T03:07:41;93857.44;;;19.69;79.91
20009;BME280;10165;42.662;23.260;2023-06-14T03:10:11;93857.25;;;19.52;81.47
20009;BME280;10165;42.662;23.260;2023-06-14T03:12:40;93859.25;;;19.48;81.27
20009;BME280;10165;42.662;23.260;2023-06-14T03:15:08;93873.72;;;19.35;81.60
20009;BME280;10165;42.662;23.260;2023-06-14T03:17:35;93871.19;;;19.17;82.47
20009;BME280;10165;42.662;23.260;2023-06-14T03:20:06;93874.72;;;18.77;85.12
20009;BME280;10165;42.662;23.260;2023-06-14T03:22:33;93867.50;;;19.00;84.72
20009;BME280;10165;42.662;23.260;2023-06-14T03:25:00;93867.22;;;19.25;82.10
20009;BME280;10165;42.662;23.260;2023-06-14T03:27:27;93875.94;;;19.06;82.43
20009;BME280;10165;42.662;23.260;2023-06-14T03:29:55;93876.09;;;19.29;82.43
20009;BME280;10165;42.662;23.260;2023-06-14T03:32:22;93874.97;;;19.27;82.16
20009;BME280;10165;42.662;23.260;2023-06-14T03:34:48;93880.34;;;19.30;81.78
20009;BME280;10165;42.662;23.260;2023-06-14T03:37:17;93885.22;;;19.46;81.95
20009;BME280;10165;42.662;23.260;2023-06-14T03:39:44;93884.84;;;19.40;81.34
20009;BME280;10165;42.662;23.260;2023-06-14T03:42:13;93882.00;;;19.54;81.22
20009;BME280;10165;42.662;23.260;2023-06-14T03:44:40;93883.75;;;19.00;82.55
20009;BME280;10165;42.662;23.260;2023-06-14T03:47:07;93879.34;;;19.14;82.63
20009;BME280;10165;42.662;23.260;2023-06-14T03:49:34;93879.03;;;19.08;82.83
20009;BME280;10165;42.662;23.260;2023-06-14T03:52:01;93865.19;;;18.99;82.47
20009;BME280;10165;42.662;23.260;2023-06-14T03:54:29;93877.41;;;19.14;81.18
20009;BME280;10165;42.662;23.260;2023-06-14T03:57:01;93885.22;;;19.46;81.02
20009;BME280;10165;42.662;23.260;2023-06-14T03:59:28;93888.13;;;19.25;81.35
20009;BME280;10165;42.662;23.260;2023-06-14T04:01:55;93884.25;;;19.26;80.95
20009;BME280;10165;42.662;23.260;2023-06-14T04:04:21;93886.88;;;19.33;81.76
20009;BME280;10165;42.662;23.260;2023-06-14T04:06:56;93887.66;;;18.96;82.60
20009;BME280;10165;42.662;23.260;2023-06-14T04:09:29;93885.31;;;18.98;82.54
20009;BME280;10165;42.662;23.260;2023-06-14T04:11:56;93888.31;;;19.07;81.80
20009;BME280;10165;42.662;23.260;2023-06-14T04:14:22;93890.19;;;19.47;80.46
20009;BME280;10165;42.662;23.260;2023-06-14T04:16:49;93880.66;;;19.70;79.79
20009;BME280;10165;42.662;23.260;2023-06-14T04:19:16;93884.72;;;19.54;80.46
20009;BME280;10165;42.662;23.260;2023-06-14T04:21:43;93878.34;;;19.68;81.33
20009;BME280;10165;42.662;23.260;2023-06-14T04:24:10;93888.69;;;19.77;80.26
20009;BME280;10165;42.662;23.260;2023-06-14T04:26:41;93883.03;;;19.64;78.77
20009;BME280;10165;42.662;23.260;2023-06-14T04:29:11;93887.81;;;19.83;80.37
20009;BME280;10165;42.662;23.260;2023-06-14T04:31:43;93884.34;;;19.83;79.67
20009;BME280;10165;42.662;23.260;2023-06-14T04:34:12;93889.56;;;19.67;79.52
20009;BME280;10165;42.662;23.260;2023-06-14T04:36:43;93888.06;;;19.66;78.60
20009;BME280;10165;42.662;23.260;2023-06-14T04:39:16;93883.78;;;19.95;77.99
20009;BME280;10165;42.662;23.260;2023-06-14T04:41:44;93884.84;;;19.40;79.60
20009;BME280;10165;42.662;23.260;2023-06-14T04:44:11;93887.59;;;19.03;82.17
20009;BME280;10165;42.662;23.260;2023-06-14T04:46:39;93886.50;;;18.97;82.41
20009;BME280;10165;42.662;23.260;2023-06-14T04:49:15;93876.13;;;19.26;81.15
20009;BME280;10165;42.662;23.260;2023-06-14T04:51:43;93885.25;;;19.05;82.59
20009;BME280;10165;42.662;23.260;2023-06-14T04:54:10;93891.97;;;19.27;82.58
20009;BME280;10165;42.662;23.260;2023-06-14T04:56:41;93895.72;;;19.71;80.82
20009;BME280;10165;42.662;23.260;2023-06-14T04:59:09;93884.09;;;20.00;79.04
20009;BME280;10165;42.662;23.260;2023-06-14T05:01:35;93894.22;;;19.70;79.83
20009;BME280;10165;42.662;23.260;2023-06-14T05:04:04;93901.38;;;19.83;78.85
20009;BME280;10165;42.662;23.260;2023-06-14T05:06:30;93899.25;;;19.68;78.88
20009;BME280;10165;42.662;23.260;2023-06-14T05:08:58;93898.56;;;20.17;77.01
20009;BME280;10165;42.662;23.260;2023-06-14T05:11:25;93908.44;;;19.77;78.17
20009;BME280;10165;42.662;23.260;2023-06-14T05:13:53;93907.25;;;20.05;77.52
20009;BME280;10165;42.662;23.260;2023-06-14T05:16:21;93901.88;;;20.01;78.14
20009;BME280;10165;42.662;23.260;2023-06-14T05:18:49;93902.91;;;20.65;76.65
20009;BME280;10165;42.662;23.260;2023-06-14T05:21:17;93913.97;;;20.77;74.94
20009;BME280;10165;42.662;23.260;2023-06-14T05:23:45;93910.75;;;20.59;74.93
20009;BME280;10165;42.662;23.260;2023-06-14T05:26:12;93914.69;;;21.24;72.76
20009;BME280;10165;42.662;23.260;2023-06-14T05:28:38;93928.28;;;20.78;72.72
20009;BME280;10165;42.662;23.260;2023-06-14T05:31:05;93919.25;;;20.61;72.77
20009;BME280;10165;42.662;23.260;2023-06-14T05:33:32;93930.34;;;20.17;74.82
20009;BME280;10165;42.662;23.260;2023-06-14T05:35:59;93932.25;;;19.22;78.47
20009;BME280;10165;42.662;23.260;2023-06-14T05:38:25;93931.56;;;19.85;77.72
20009;BME280;10165;42.662;23.260;2023-06-14T05:40:52;93936.38;;;20.01;76.49
20009;BME280;10165;42.662;23.260;2023-06-14T05:43:19;93935.44;;;20.41;74.54
20009;BME280;10165;42.662;23.260;2023-06-14T05:45:46;93937.06;;;20.35;74.20
20009;BME280;10165;42.662;23.260;2023-06-14T05:48:13;93937.47;;;20.07;76.59
20009;BME280;10165;42.662;23.260;2023-06-14T05:50:40;93934.72;;;20.87;73.68
20009;BME280;10165;42.662;23.260;2023-06-14T05:53:06;93938.13;;;20.68;74.34
20009;BME280;10165;42.662;23.260;2023-06-14T05:55:33;93934.47;;;20.78;74.39
20009;BME280;10165;42.662;23.260;2023-06-14T05:58:00;93942.03;;;20.40;74.92
20009;BME280;10165;42.662;23.260;2023-06-14T06:00:27;93944.44;;;19.44;79.07
20009;BME280;10165;42.662;23.260;2023-06-14T06:02:54;93946.91;;;19.95;78.31
20009;BME280;10165;42.662;23.260;2023-06-14T06:05:23;93949.56;;;19.99;77.44
20009;BME280;10165;42.662;23.260;2023-06-14T06:07:51;93944.69;;;19.87;77.88
20009;BME280;10165;42.662;23.260;2023-06-14T06:10:18;93955.06;;;20.22;77.54
20009;BME280;10165;42.662;23.260;2023-06-14T06:12:45;93948.81;;;20.25;77.65
20009;BME280;10165;42.662;23.260;2023-06-14T06:15:13;93946.91;;;20.52;75.47
20009;BME280;10165;42.662;23.260;2023-06-14T06:17:41;93953.00;;;20.33;76.41
20009;BME280;10165;42.662;23.260;2023-06-14T06:20:22;93959.59;;;20.32;76.66
20009;BME280;10165;42.662;23.260;2023-06-14T06:22:55;93953.19;;;20.19;76.37
20009;BME280;10165;42.662;23.260;2023-06-14T06:25:22;93958.78;;;20.35;76.98
20009;BME280;10165;42.662;23.260;2023-06-14T06:27:49;93958.66;;;20.16;77.14
20009;BME280;10165;42.662;23.260;2023-06-14T06:30:16;93958.59;;;20.19;77.51
20009;BME280;10165;42.662;23.260;2023-06-14T06:32:43;93962.13;;;20.16;78.00
20009;BME280;10165;42.662;23.260;2023-06-14T06:35:09;93960.75;;;20.35;77.22
20009;BME280;10165;42.662;23.260;2023-06-14T06:37:37;93956.03;;;20.66;76.48
20009;BME280;10165;42.662;23.260;2023-06-14T06:40:05;93960.78;;;20.28;76.11
20009;BME280;10165;42.662;23.260;2023-06-14T06:42:32;93959.59;;;20.32;76.20
20009;BME280;10165;42.662;23.260;2023-06-14T06:44:59;93955.75;;;20.57;76.38
20009;BME280;10165;42.662;23.260;2023-06-14T06:47:26;93957.41;;;20.20;74.58
20009;BME280;10165;42.662;23.260;2023-06-14T06:49:53;93951.88;;;20.58;75.62
20009;BME280;10165;42.662;23.260;2023-06-14T06:52:20;93955.28;;;20.08;77.74
20009;BME280;10165;42.662;23.260;2023-06-14T06:54:46;93959.03;;;20.71;76.45
20009;BME280;10165;42.662;23.260;2023-06-14T06:57:13;93963.78;;;21.14;73.08
20009;BME280;10165;42.662;23.260;2023-06-14T06:59:40;93965.84;;;21.29;71.33
20009;BME280;10165;42.662;23.260;2023-06-14T07:02:07;93954.06;;;21.36;72.39
20009;BME280;10165;42.662;23.260;2023-06-14T07:04:34;93952.69;;;21.48;71.69
20009;BME280;10165;42.662;23.260;2023-06-14T07:07:01;93965.88;;;21.69;69.86
20009;BME280;10165;42.662;23.260;2023-06-14T07:09:27;93971.16;;;21.13;70.07
20009;BME280;10165;42.662;23.260;2023-06-14T07:11:54;93963.50;;;20.81;72.27
20009;BME280;10165;42.662;23.260;2023-06-14T07:14:21;93964.78;;;21.43;71.69
20009;BME280;10165;42.662;23.260;2023-06-14T07:16:49;93958.41;;;21.53;70.78
20009;BME280;10165;42.662;23.260;2023-06-14T07:19:16;93959.44;;;21.39;72.75
20009;BME280;10165;42.662;23.260;2023-06-14T07:21:43;93953.97;;;20.96;72.03
20009;BME280;10165;42.662;23.260;2023-06-14T07:24:10;93955.03;;;21.03;71.71
20009;BME280;10165;42.662;23.260;2023-06-14T07:26:37;93952.56;;;21.12;72.57
20009;BME280;10165;42.662;23.260;2023-06-14T07:29:03;93958.78;;;20.85;72.85
20009;BME280;10165;42.662;23.260;2023-06-14T07:31:30;93954.66;;;21.24;72.75
20009;BME280;10165;42.662;23.260;2023-06-14T07:33:58;93952.47;;;21.38;72.71
20009;BME280;10165;42.662;23.260;2023-06-14T07:36:25;93956.66;;;21.82;71.61
20009;BME280;10165;42.662;23.260;2023-06-14T07:38:52;93951.94;;;21.86;72.45
20009;BME280;10165;42.662;23.260;2023-06-14T07:41:19;93957.56;;;21.56;69.59
20009;BME280;10165;42.662;23.260;2023-06-14T07:43:45;93948.47;;;21.00;72.58
20009;BME280;10165;42.662;23.260;2023-06-14T07:46:12;93961.06;;;21.14;71.71
20009;BME280;10165;42.662;23.260;2023-06-14T07:48:40;93956.97;;;21.25;71.49
20009;BME280;10165;42.662;23.260;2023-06-14T07:51:07;93964.47;;;21.61;70.91
20009;BME280;10165;42.662;23.260;2023-06-14T07:53:33;93962.59;;;20.91;71.77
20009;BME280;10165;42.662;23.260;2023-06-14T07:56:00;93967.00;;;21.05;71.38
20009;BME280;10165;42.662;23.260;2023-06-14T07:58:27;93966.69;;;21.85;68.14
20009;BME280;10165;42.662;23.260;2023-06-14T08:00:54;93971.97;;;22.32;68.85
20009;BME280;10165;42.662;23.260;2023-06-14T08:03:21;93970.22;;;22.42;66.79
20009;BME280;10165;42.662;23.260;2023-06-14T08:05:49;93975.56;;;22.09;67.54
20009;BME280;10165;42.662;23.260;2023-06-14T08:08:16;93972.03;;;21.73;68.14
20009;BME280;10165;42.662;23.260;2023-06-14T08:10:44;93980.75;;;22.39;66.91
20009;BME280;10165;42.662;23.260;2023-06-14T08:13:10;93983.06;;;22.41;67.98
20009;BME280;10165;42.662;23.260;2023-06-14T08:15:37;93987.09;;;22.53;68.33
20009;BME280;10165;42.662;23.260;2023-06-14T08:18:04;93990.25;;;22.67;67.16
20009;BME280;10165;42.662;23.260;2023-06-14T08:20:31;93991.31;;;23.06;65.01
20009;BME280;10165;42.662;23.260;2023-06-14T08:22:58;93996.34;;;22.75;64.66
20009;BME280;10165;42.662;23.260;2023-06-14T08:25:25;93993.00;;;23.32;63.65
20009;BME280;10165;42.662;23.260;2023-06-14T08:27:52;93992.78;;;22.94;62.17
20009;BME280;10165;42.662;23.260;2023-06-14T08:30:19;93983.41;;;22.95;64.91
20009;BME280;10165;42.662;23.260;2023-06-14T08:32:45;93985.94;;;23.51;65.11
20009;BME280;10165;42.662;23.260;2023-06-14T08:35:19;93993.69;;;23.81;62.29
20009;BME280;10165;42.662;23.260;2023-06-14T08:37:46;93994.22;;;22.99;63.06
20009;BME280;10165;42.662;23.260;2023-06-14T08:40:18;93990.72;;;22.82;63.03
20009;BME280;10165;42.662;23.260;2023-06-14T08:42:54;93983.41;;;22.95;63.46
20009;BME280;10165;42.662;23.260;2023-06-14T08:45:22;93982.47;;;22.33;64.00
20009;BME280;10165;42.662;23.260;2023-06-14T08:47:54;93982.44;;;23.34;64.48
20009;BME280;10165;42.662;23.260;2023-06-14T08:50:26;93985.34;;;22.42;63.49
20009;BME280;10165;42.662;23.260;2023-06-14T08:52:59;93972.50;;;22.95;65.64
20009;BME280;10165;42.662;23.260;2023-06-14T08:55:31;93972.72;;;23.78;64.17
20009;BME280;10165;42.662;23.260;2023-06-14T08:58:03;93977.31;;;23.52;61.45
20009;BME280;10165;42.662;23.260;2023-06-14T09:00:31;93974.97;;;23.06;62.66
20009;BME280;10165;42.662;23.260;2023-06-14T09:03:00;93979.06;;;23.75;60.04
20009;BME280;10165;42.662;23.260;2023-06-14T09:05:28;93977.91;;;23.60;60.29
20009;BME280;10165;42.662;23.260;2023-06-14T09:07:55;93967.13;;;23.08;61.56
20009;BME280;10165;42.662;23.260;2023-06-14T09:10:23;93971.75;;;23.72;61.00
20009;BME280;10165;42.662;23.260;2023-06-14T09:12:53;93974.88;;;23.09;60.67
20009;BME280;10165;42.662;23.260;2023-06-14T09:15:20;93970.53;;;23.44;61.03
20009;BME280;10165;42.662;23.260;2023-06-14T09:17:47;93957.59;;;22.31;64.85
20009;BME280;10165;42.662;23.260;2023-06-14T09:20:14;93962.63;;;23.17;61.07
20009;BME280;10165;42.662;23.260;2023-06-14T09:22:46;93957.34;;;23.84;62.45
20009;BME280;10165;42.662;23.260;2023-06-14T09:25:13;93962.44;;;23.98;60.23
20009;BME280;10165;42.662;23.260;2023-06-14T09:28:01;93958.38;;;23.90;59.44
20009;BME280;10165;42.662;23.260;2023-06-14T09:30:28;93957.03;;;24.23;57.53
20009;BME280;10165;42.662;23.260;2023-06-14T09:32:55;93959.72;;;23.69;59.52
20009;BME280;10165;42.662;23.260;2023-06-14T09:35:27;93965.25;;;23.66;59.10
20009;BME280;10165;42.662;23.260;2023-06-14T09:37:56;93965.78;;;24.18;58.33
20009;BME280;10165;42.662;23.260;2023-06-14T09:40:23;93962.09;;;24.75;57.98
20009;BME280;10165;42.662;23.260;2023-06-14T09:42:51;93966.88;;;24.21;58.02
20009;BME280;10165;42.662;23.260;2023-06-14T09:45:19;93954.13;;;24.02;59.52
20009;BME280;10165;42.662;23.260;2023-06-14T09:47:51;93958.25;;;24.35;59.56
20009;BME280;10165;42.662;23.260;2023-06-14T09:50:33;93953.47;;;23.98;60.41
20009;BME280;10165;42.662;23.260;2023-06-14T09:53:06;93949.41;;;24.69;57.81
20009;BME280;10165;42.662;23.260;2023-06-14T09:55:37;93948.88;;;23.95;57.84
20009;BME280;10165;42.662;23.260;2023-06-14T09:58:06;93952.69;;;24.26;57.98
20009;BME280;10165;42.662;23.260;2023-06-14T10:00:35;93952.84;;;24.06;62.57
20009;BME280;10165;42.662;23.260;2023-06-14T10:03:13;93947.09;;;24.42;57.30
20009;BME280;10165;42.662;23.260;2023-06-14T10:05:45;93946.78;;;24.27;59.20
20009;BME280;10165;42.662;23.260;2023-06-14T10:08:16;93949.09;;;24.92;58.52
20009;BME280;10165;42.662;23.260;2023-06-14T10:10:44;93934.91;;;24.72;57.95
20009;BME280;10165;42.662;23.260;2023-06-14T10:13:12;93936.50;;;25.76;54.98
20009;BME280;10165;42.662;23.260;2023-06-14T10:15:45;93923.31;;;25.84;54.34
20009;BME280;10165;42.662;23.260;2023-06-14T10:21:00;93924.34;;;25.08;55.65
20009;BME280;10165;42.662;23.260;2023-06-14T10:23:29;93924.22;;;25.25;55.02
20009;BME280;10165;42.662;23.260;2023-06-14T10:25:57;93922.81;;;25.07;54.54
20009;BME280;10165;42.662;23.260;2023-06-14T10:28:24;93915.78;;;24.72;55.79
20009;BME280;10165;42.662;23.260;2023-06-14T10:31:11;93921.00;;;24.66;57.25
20009;BME280;10165;42.662;23.260;2023-06-14T10:33:48;93922.66;;;24.89;57.20
20009;BME280;10165;42.662;23.260;2023-06-14T10:39:10;93922.09;;;23.77;58.51
20009;BME280;10165;42.662;23.260;2023-06-14T10:41:38;93927.88;;;24.20;59.39
20009;BME280;10165;42.662;23.260;2023-06-14T10:46:55;93915.53;;;24.66;56.22
20009;BME280;10165;42.662;23.260;2023-06-14T10:49:45;93909.88;;;24.36;57.76
20009;BME280;10165;42.662;23.260;2023-06-14T10:52:16;93917.97;;;23.85;58.05
20009;BME280;10165;42.662;23.260;2023-06-14T10:55:09;93908.06;;;24.04;57.18
20009;BME280;10165;42.662;23.260;2023-06-14T10:57:42;93899.78;;;24.83;56.76
20009;BME280;10165;42.662;23.260;2023-06-14T11:00:19;93889.78;;;25.14;55.86
20009;BME280;10165;42.662;23.260;2023-06-14T11:03:31;93893.00;;;25.00;54.15
20009;BME280;10165;42.662;23.260;2023-06-14T11:06:14;93881.91;;;25.16;55.71
20009;BME280;10165;42.662;23.260;2023-06-14T11:11:32;93878.91;;;25.58;53.55
20009;BME280;10165;42.662;23.260;2023-06-14T11:14:00;93872.31;;;26.21;52.79
20009;BME280;10165;42.662;23.260;2023-06-14T11:16:28;93874.50;;;25.04;53.86
20009;BME280;10165;42.662;23.260;2023-06-14T11:18:55;93881.25;;;25.12;53.83
20009;BME280;10165;42.662;23.260;2023-06-14T11:21:24;93891.63;;;24.58;54.58
20009;BME280;10165;42.662;23.260;2023-06-14T11:23:52;93876.19;;;25.58;54.07
20009;BME280;10165;42.662;23.260;2023-06-14T11:26:29;93867.97;;;25.58;52.65
20009;BME280;10165;42.662;23.260;2023-06-14T11:28:58;93886.19;;;25.52;52.98
20009;BME280;10165;42.662;23.260;2023-06-14T11:31:26;93879.00;;;25.33;53.27
20009;BME280;10165;42.662;23.260;2023-06-14T11:33:58;93874.19;;;26.02;52.47
20009;BME280;10165;42.662;23.260;2023-06-14T11:36:29;93871.88;;;25.13;54.16
20009;BME280;10165;42.662;23.260;2023-06-14T11:39:01;93879.34;;;25.00;54.23
20009;BME280;10165;42.662;23.260;2023-06-14T11:41:43;93871.38;;;24.93;54.83
20009;BME280;10165;42.662;23.260;2023-06-14T11:44:11;93861.59;;;25.39;53.80
20009;BME280;10165;42.662;23.260;2023-06-14T11:46:38;93865.91;;;25.28;53.74
20009;BME280;10165;42.662;23.260;2023-06-14T11:49:07;93856.25;;;25.57;53.17
20009;BME280;10165;42.662;23.260;2023-06-14T11:51:35;93856.69;;;25.34;53.00
20009;BME280;10165;42.662;23.260;2023-06-14T11:54:03;93848.22;;;25.41;53.59
20009;BME280;10165;42.662;23.260;2023-06-14T11:56:31;93847.69;;;25.99;54.66
20009;BME280;10165;42.662;23.260;2023-06-14T11:58:59;93852.94;;;25.41;54.38
20009;BME280;10165;42.662;23.260;2023-06-14T12:01:30;93842.22;;;25.68;54.28
20009;BME280;10165;42.662;23.260;2023-06-14T12:03:59;93838.56;;;26.24;51.81
20009;BME280;10165;42.662;23.260;2023-06-14T12:06:27;93833.31;;;26.16;51.05
20009;BME280;10165;42.662;23.260;2023-06-14T12:09:03;93822.97;;;26.51;50.21
20009;BME280;10165;42.662;23.260;2023-06-14T12:11:35;93822.41;;;26.26;50.40
20009;BME280;10165;42.662;23.260;2023-06-14T12:14:03;93827.69;;;26.51;51.87
20009;BME280;10165;42.662;23.260;2023-06-14T12:16:33;93823.03;;;25.46;52.76
20009;BME280;10165;42.662;23.260;2023-06-14T12:19:16;93818.97;;;25.51;52.97
20009;BME280;10165;42.662;23.260;2023-06-14T12:21:46;93819.47;;;25.80;50.39
20009;BME280;10165;42.662;23.260;2023-06-14T12:24:15;93828.56;;;26.08;52.08
20009;BME280;10165;42.662;23.260;2023-06-14T12:26:42;93823.03;;;25.25;54.19
20009;BME280;10165;42.662;23.260;2023-06-14T12:29:10;93824.72;;;25.22;50.92
20009;BME280;10165;42.662;23.260;2023-06-14T12:31:39;93816.84;;;26.07;52.89
20009;BME280;10165;42.662;23.260;2023-06-14T12:34:07;93812.81;;;25.59;51.55
20009;BME280;10165;42.662;23.260;2023-06-14T12:36:33;93809.75;;;25.57;51.67
20009;BME280;10165;42.662;23.260;2023-06-14T12:39:02;93809.31;;;25.37;52.20
20009;BME280;10165;42.662;23.260;2023-06-14T12:41:28;93810.19;;;25.78;51.23
20009;BME280;10165;42.662;23.260;2023-06-14T12:43:55;93802.63;;;24.82;52.53
20009;BME280;10165;42.662;23.260;2023-06-14T12:46:24;93801.69;;;25.76;52.08
20009;BME280;10165;42.662;23.260;2023-06-14T12:48:51;93797.75;;;25.55;53.04
20009;BME280;10165;42.662;23.260;2023-06-14T12:51:17;93789.91;;;25.22;53.11
20009;BME280;10165;42.662;23.260;2023-06-14T12:53:44;93792.59;;;25.13;53.70
20009;BME280;10165;42.662;23.260;2023-06-14T12:56:11;93788.72;;;25.23;53.83
20009;BME280;10165;42.662;23.260;2023-06-14T12:58:38;93782.78;;;26.57;53.36
20009;BME280;10165;42.662;23.260;2023-06-14T13:01:05;93793.03;;;26.17;51.23
20009;BME280;10165;42.662;23.260;2023-06-14T13:03:31;93794.50;;;25.47;52.95
20009;BME280;10165;42.662;23.260;2023-06-14T13:06:01;93794.50;;;25.47;52.33
20009;BME280;10165;42.662;23.260;2023-06-14T13:08:27;93796.94;;;24.76;55.03
20009;BME280;10165;42.662;23.260;2023-06-14T13:10:54;93802.88;;;25.31;54.07
20009;BME280;10165;42.662;23.260;2023-06-14T13:13:21;93804.25;;;24.92;55.81